Great Missenden, United Kingdom
Current Conditions -  °F | °C
As of 10:50 PM on Thursday 20 Nov 2014 (Local Time) from EGWU Reporting Station
Haze Haze  
Wind Chill: 38°   Ceiling: Unl
Heat Index: 41°   Visibility: 2.3mi
Dew Point: 39°   Wind: 5mph
Humidity: 93%   Direction: 40°NE
Pressure: 30.21"   Gusts: NA
Location:  51.7°N, 0.71°W
Report Text: EGWU 202250Z 04004KT 3800 BR FEW017 05/04 Q1023 BECMG 3000
Loading
Personal Weather Stations






























Interactive Weather Map New forecast layout! Learn more

10-Day Weather Forecast

Advertisements
Track Severe Weather on mobile